Time;durP1;ratioP1;P1;durP2;ratioP2;P2;SDS_P1;SDS_P2;PMS_P1;PMS_P2;Temp;Humidity;BMP_temperature;BMP_pressure;BME280_temperature;BME280_humidity;BME280_pressure;Samples;Min_cycle;Max_cycle;Signal;HPM_P1;HPM_P2
2024/01/12 00:01:23;;;;;;;52.05;19.77;;;-1.50;99.90;;;;;;4987178;28;20026;-58
2024/01/12 00:03:50;;;;;;;55.63;19.83;;;-1.50;99.90;;;;;;4986834;28;20045;-58
2024/01/12 00:06:15;;;;;;;55.28;20.17;;;-1.40;99.90;;;;;;4986627;28;20026;-57
2024/01/12 00:08:41;;;;;;;58.83;20.42;;;-1.40;99.90;;;;;;4986794;28;20476;-55
2024/01/12 00:11:08;;;;;;;43.78;17.60;;;-1.40;99.90;;;;;;4986653;28;20030;-55
2024/01/12 00:13:34;;;;;;;43.90;18.75;;;-1.40;99.90;;;;;;4988454;28;20029;-52
2024/01/12 00:16:05;;;;;;;53.72;19.80;;;-1.30;99.90;;;;;;4989999;28;20031;-53
2024/01/12 00:18:30;;;;;;;53.88;19.88;;;-1.20;99.90;;;;;;4993495;28;20026;-55
2024/01/12 00:20:56;;;;;;;44.38;19.60;;;-1.30;99.90;;;;;;4988673;28;20089;-55
2024/01/12 00:23:21;;;;;;;48.83;18.92;;;-1.30;99.90;;;;;;4990030;28;20030;-53
2024/01/12 00:25:47;;;;;;;50.03;19.42;;;-1.20;99.90;;;;;;4990279;28;20031;-56
2024/01/12 00:28:13;;;;;;;48.75;19.00;;;-1.20;99.90;;;;;;4990950;28;20037;-56
2024/01/12 00:30:38;;;;;;;42.40;17.27;;;-1.20;99.90;;;;;;4996600;28;20111;-52
2024/01/12 00:33:05;;;;;;;48.60;19.85;;;-1.20;99.90;;;;;;4995015;28;20488;-53
2024/01/12 00:35:31;;;;;;;51.22;18.90;;;-1.20;99.90;;;;;;4990179;28;20104;-53
2024/01/12 00:37:57;;;;;;;53.28;19.55;;;-1.20;99.90;;;;;;4991442;28;20101;-54
2024/01/12 00:40:23;;;;;;;44.05;19.10;;;-1.20;99.90;;;;;;4995194;28;20168;-55
2024/01/12 00:42:50;;;;;;;52.97;21.08;;;-1.10;99.90;;;;;;4990385;28;20484;-55
2024/01/12 00:45:16;;;;;;;56.78;22.38;;;-1.10;99.90;;;;;;4989719;28;20023;-52
2024/01/12 00:47:42;;;;;;;50.10;19.52;;;-1.10;99.90;;;;;;4990752;28;20034;-52
2024/01/12 00:50:08;;;;;;;55.58;20.30;;;-1.10;99.90;;;;;;4988284;28;20027;-54
2024/01/12 00:52:34;;;;;;;49.25;20.38;;;-1.10;99.90;;;;;;4992696;28;20029;-55
2024/01/12 00:55:00;;;;;;;54.28;19.95;;;-1.10;99.90;;;;;;4991546;28;20105;-55
2024/01/12 00:57:26;;;;;;;50.40;19.42;;;-1.10;99.90;;;;;;4987301;28;20479;-54
2024/01/12 00:59:51;;;;;;;61.80;20.60;;;-1.10;99.90;;;;;;4990254;28;20031;-54
2024/01/12 01:02:17;;;;;;;55.08;19.77;;;-1.10;99.90;;;;;;4989917;28;20031;-55
2024/01/12 01:04:42;;;;;;;56.45;20.55;;;-1.10;99.90;;;;;;4972893;28;20030;-54
2024/01/12 01:07:08;;;;;;;55.75;20.30;;;-1.10;99.90;;;;;;4990300;28;20065;-54
2024/01/12 01:09:34;;;;;;;43.60;18.77;;;-1.10;99.90;;;;;;4990194;28;20037;-55
2024/01/12 01:11:59;;;;;;;47.28;18.73;;;-1.10;99.90;;;;;;4995462;28;20031;-54
2024/01/12 01:14:25;;;;;;;49.20;20.17;;;-1.10;99.90;;;;;;4988226;28;20029;-53
2024/01/12 01:16:51;;;;;;;49.10;19.83;;;-1.10;99.90;;;;;;4986804;28;20073;-54
2024/01/12 01:19:18;;;;;;;45.35;17.88;;;-1.00;99.90;;;;;;4986743;28;20029;-55
2024/01/12 01:21:43;;;;;;;51.50;19.20;;;-1.00;99.90;;;;;;4995365;28;20396;-56
2024/01/12 01:24:09;;;;;;;47.78;19.30;;;-1.00;99.90;;;;;;4964012;28;20074;-55
2024/01/12 01:26:34;;;;;;;50.97;18.42;;;-1.00;99.90;;;;;;4991925;28;20561;-51
2024/01/12 01:29:00;;;;;;;43.92;17.63;;;-1.00;99.90;;;;;;4990643;28;20037;-52
2024/01/12 01:31:26;;;;;;;53.67;18.90;;;-1.00;99.90;;;;;;4990490;28;20026;-55
2024/01/12 01:33:51;;;;;;;44.78;19.25;;;-1.00;99.90;;;;;;4993778;28;20404;-53
2024/01/12 01:36:17;;;;;;;51.65;19.90;;;-0.90;99.90;;;;;;4992076;28;20034;-55
2024/01/12 01:38:42;;;;;;;57.10;21.92;;;-0.90;99.90;;;;;;4993827;28;20041;-54
2024/01/12 01:41:08;;;;;;;47.20;18.15;;;-0.90;99.90;;;;;;4993571;28;20027;-53
2024/01/12 01:43:34;;;;;;;42.88;18.95;;;-0.90;99.90;;;;;;4989303;28;20373;-53
2024/01/12 01:46:00;;;;;;;50.60;19.90;;;-0.90;99.90;;;;;;4990357;28;20066;-55
2024/01/12 01:48:26;;;;;;;50.95;18.90;;;-0.90;99.90;;;;;;4993748;28;20022;-52
2024/01/12 01:50:53;;;;;;;57.47;20.15;;;-0.90;99.90;;;;;;4992434;28;20137;-54
2024/01/12 01:53:19;;;;;;;50.25;18.02;;;-0.90;99.90;;;;;;4993062;28;20046;-55
2024/01/12 01:55:45;;;;;;;50.17;18.45;;;-0.90;99.90;;;;;;4992230;28;20026;-56
2024/01/12 01:58:12;;;;;;;48.63;18.55;;;-0.90;99.90;;;;;;4993588;28;20165;-55
2024/01/12 02:00:38;;;;;;;50.83;19.45;;;-0.80;99.90;;;;;;4989991;28;20022;-56
2024/01/12 02:03:04;;;;;;;48.03;20.25;;;-0.80;99.90;;;;;;4991595;28;20059;-55
2024/01/12 02:05:30;;;;;;;46.80;20.40;;;-0.80;99.90;;;;;;4975362;28;20392;-54
2024/01/12 02:07:57;;;;;;;53.92;20.75;;;-0.90;99.90;;;;;;4992939;28;20022;-55
2024/01/12 02:10:23;;;;;;;47.67;17.90;;;-0.90;99.90;;;;;;4991947;28;20049;-55
2024/01/12 02:12:48;;;;;;;49.22;18.75;;;-0.90;99.90;;;;;;4995521;28;20034;-55
2024/01/12 02:15:14;;;;;;;55.63;20.83;;;-0.90;99.90;;;;;;4988484;28;20868;-54
2024/01/12 02:17:41;;;;;;;49.15;17.98;;;-0.90;99.90;;;;;;4990970;28;20536;-55
2024/01/12 02:20:07;;;;;;;58.80;18.98;;;-0.90;99.90;;;;;;4991687;28;20032;-54
2024/01/12 02:22:33;;;;;;;46.42;19.02;;;-0.90;99.90;;;;;;4991932;28;20113;-54
2024/01/12 02:24:59;;;;;;;48.95;19.15;;;-0.90;99.90;;;;;;4993014;28;20599;-55
2024/01/12 02:27:25;;;;;;;44.70;18.25;;;-0.90;99.90;;;;;;4992561;28;20030;-52
2024/01/12 02:29:52;;;;;;;45.13;19.75;;;-0.90;99.90;;;;;;4993107;28;20469;-55
2024/01/12 02:32:17;;;;;;;49.30;19.27;;;-0.90;99.90;;;;;;4993370;28;20560;-54
2024/01/12 02:34:43;;;;;;;47.15;21.05;;;-0.90;99.90;;;;;;4993397;28;20101;-55
2024/01/12 02:37:09;;;;;;;51.20;19.88;;;-0.80;99.90;;;;;;4992842;28;20034;-54
2024/01/12 02:39:34;;;;;;;50.05;19.42;;;-0.90;99.90;;;;;;4990392;28;20042;-55
2024/01/12 02:42:00;;;;;;;50.45;20.25;;;-0.80;99.90;;;;;;4991648;28;20018;-55
2024/01/12 02:44:26;;;;;;;57.83;20.65;;;-0.90;99.90;;;;;;4993615;28;20030;-55
2024/01/12 02:46:51;;;;;;;48.22;19.45;;;-0.90;99.90;;;;;;4990900;28;20026;-55
2024/01/12 02:49:17;;;;;;;43.50;19.05;;;-0.90;99.90;;;;;;4994393;28;20022;-54
2024/01/12 02:51:42;;;;;;;52.05;19.85;;;-1.00;99.90;;;;;;4991951;28;20054;-55
2024/01/12 02:54:08;;;;;;;47.47;19.25;;;-0.90;99.90;;;;;;4992430;28;20105;-52
2024/01/12 02:56:35;;;;;;;51.55;20.42;;;-1.00;99.90;;;;;;4992523;28;20117;-55
2024/01/12 02:59:00;;;;;;;58.50;20.48;;;-0.90;99.90;;;;;;4992740;28;20511;-54
2024/01/12 03:01:27;;;;;;;46.08;20.67;;;-0.90;99.90;;;;;;4990797;28;20034;-53
2024/01/12 03:03:53;;;;;;;48.28;20.55;;;-0.90;99.90;;;;;;4992366;28;20088;-53
2024/01/12 03:06:18;;;;;;;55.45;20.20;;;-0.90;99.90;;;;;;4972750;28;20505;-56
2024/01/12 03:08:44;;;;;;;45.97;20.40;;;-0.90;99.90;;;;;;4975519;28;20790;-53
2024/01/12 03:11:09;;;;;;;52.33;20.58;;;-0.90;99.90;;;;;;4975098;28;20039;-56
2024/01/12 03:13:35;;;;;;;51.08;21.27;;;-0.90;99.90;;;;;;4973555;28;20049;-53
2024/01/12 03:16:01;;;;;;;54.83;20.52;;;-0.90;99.90;;;;;;4973420;28;20101;-55
2024/01/12 03:18:28;;;;;;;50.67;18.27;;;-0.90;99.90;;;;;;4985760;28;20484;-54
2024/01/12 03:20:54;;;;;;;51.65;20.02;;;-0.90;99.90;;;;;;4987110;28;20022;-56
2024/01/12 03:23:19;;;;;;;46.67;20.10;;;-0.90;99.90;;;;;;4967758;28;20031;-54
2024/01/12 03:25:45;;;;;;;47.05;19.77;;;-0.90;99.90;;;;;;4977719;28;20038;-55
2024/01/12 03:28:10;;;;;;;51.42;20.40;;;-0.90;99.90;;;;;;4979746;28;20057;-52
2024/01/12 03:30:36;;;;;;;49.35;20.75;;;-0.90;99.90;;;;;;4972456;28;20081;-54
2024/01/12 03:33:01;;;;;;;42.80;20.23;;;-1.00;99.90;;;;;;4972587;28;20023;-55
2024/01/12 03:35:27;;;;;;;49.13;20.00;;;-1.00;99.90;;;;;;4971556;28;20382;-55
2024/01/12 03:37:53;;;;;;;47.47;20.58;;;-1.00;99.90;;;;;;4970040;28;20043;-55
2024/01/12 03:40:19;;;;;;;48.67;19.30;;;-1.00;99.90;;;;;;4977147;28;20031;-54
2024/01/12 03:42:44;;;;;;;49.33;20.65;;;-0.90;99.90;;;;;;4972556;28;20057;-55
2024/01/12 03:45:10;;;;;;;46.70;19.95;;;-0.90;99.90;;;;;;4971203;28;20050;-55
2024/01/12 03:47:36;;;;;;;53.78;20.30;;;-0.90;99.90;;;;;;4971153;28;20026;-56
2024/01/12 03:50:02;;;;;;;44.22;18.63;;;-1.00;99.90;;;;;;4970500;28;20086;-57
2024/01/12 03:52:27;;;;;;;49.38;18.88;;;-1.00;99.90;;;;;;4971355;28;20050;-57
2024/01/12 03:54:53;;;;;;;42.78;17.65;;;-1.00;99.90;;;;;;4972360;28;20081;-54
2024/01/12 03:57:18;;;;;;;49.28;19.50;;;-1.00;99.90;;;;;;4972262;28;20118;-52
2024/01/12 03:59:44;;;;;;;45.85;19.00;;;-1.00;99.90;;;;;;4971192;28;20432;-55
2024/01/12 04:02:11;;;;;;;48.72;18.27;;;-1.00;99.90;;;;;;4973115;28;20058;-55
2024/01/12 04:04:36;;;;;;;51.08;20.17;;;-1.00;99.90;;;;;;4970207;28;20035;-55
2024/01/12 04:07:02;;;;;;;48.08;20.20;;;-1.00;99.90;;;;;;4971816;28;20043;-54
2024/01/12 04:09:28;;;;;;;47.67;19.08;;;-1.00;99.90;;;;;;4969767;28;20114;-51
2024/01/12 04:11:53;;;;;;;50.45;20.13;;;-1.00;99.90;;;;;;4980525;28;20023;-54
2024/01/12 04:14:19;;;;;;;47.58;19.92;;;-1.00;99.90;;;;;;4971244;28;20030;-55
2024/01/12 04:16:45;;;;;;;44.55;19.52;;;-1.00;99.90;;;;;;4976334;28;20441;-54
2024/01/12 04:19:10;;;;;;;53.95;21.23;;;-1.00;99.90;;;;;;4977167;28;20038;-55
2024/01/12 04:21:36;;;;;;;51.63;20.25;;;-0.90;99.90;;;;;;4971630;28;20039;-55
2024/01/12 04:24:01;;;;;;;47.13;18.65;;;-1.00;99.90;;;;;;4974618;28;20435;-56
2024/01/12 04:26:27;;;;;;;50.90;20.48;;;-1.00;99.90;;;;;;4970772;28;20030;-52
2024/01/12 04:28:53;;;;;;;45.28;19.38;;;-1.10;99.90;;;;;;4970914;28;20074;-55
2024/01/12 04:31:18;;;;;;;44.42;19.48;;;-1.00;99.90;;;;;;4970126;28;20081;-53
2024/01/12 04:33:44;;;;;;;49.72;19.98;;;-1.00;99.90;;;;;;4971709;28;20389;-55
2024/01/12 04:36:10;;;;;;;48.20;20.13;;;-1.00;99.90;;;;;;4971429;28;20061;-53
2024/01/12 04:38:35;;;;;;;56.45;21.33;;;-1.00;99.90;;;;;;4971697;28;20097;-55
2024/01/12 04:41:01;;;;;;;54.83;19.98;;;-0.90;99.90;;;;;;4970066;28;20026;-55
2024/01/12 04:43:26;;;;;;;54.28;20.58;;;-0.90;99.90;;;;;;4970671;28;20054;-53
2024/01/12 04:45:52;;;;;;;47.95;18.88;;;-0.90;99.90;;;;;;4970600;28;20027;-52
2024/01/12 04:48:17;;;;;;;48.83;20.63;;;-0.80;99.90;;;;;;4971378;28;20030;-55
2024/01/12 04:50:43;;;;;;;52.22;21.48;;;-0.80;99.90;;;;;;4971361;28;20389;-53
2024/01/12 04:53:09;;;;;;;41.53;18.60;;;-0.80;99.90;;;;;;4976371;28;20041;-53
2024/01/12 04:55:34;;;;;;;52.35;19.70;;;-0.80;99.90;;;;;;4970637;28;20039;-54
2024/01/12 04:58:00;;;;;;;45.05;18.77;;;-0.80;99.90;;;;;;4976238;28;20027;-52
2024/01/12 05:00:25;;;;;;;46.63;20.27;;;-0.80;99.90;;;;;;4973669;28;20578;-54
2024/01/12 05:02:51;;;;;;;53.47;21.27;;;-0.80;99.90;;;;;;4975097;28;20425;-55
2024/01/12 05:05:17;;;;;;;49.45;20.08;;;-0.80;99.90;;;;;;4974532;28;20102;-55
2024/01/12 05:07:42;;;;;;;44.97;19.55;;;-0.80;99.90;;;;;;4980847;28;20086;-53
2024/01/12 05:10:08;;;;;;;55.20;19.73;;;-0.80;99.90;;;;;;4974176;28;20026;-54
2024/01/12 05:12:36;;;;;;;58.45;19.27;;;-0.80;99.90;;;;;;4975300;28;20039;-55
2024/01/12 05:15:02;;;;;;;45.38;19.58;;;-0.80;99.90;;;;;;4974503;28;20031;-54
2024/01/12 05:17:28;;;;;;;41.90;18.58;;;-0.80;99.90;;;;;;4971532;28;20040;-55
2024/01/12 05:19:53;;;;;;;45.90;19.60;;;-0.80;99.90;;;;;;4973732;28;20056;-55
2024/01/12 05:22:19;;;;;;;47.25;19.70;;;-0.80;99.90;;;;;;4973536;28;20055;-54
2024/01/12 05:24:44;;;;;;;48.55;19.30;;;-0.80;99.90;;;;;;4974737;28;20476;-56
2024/01/12 05:27:10;;;;;;;35.75;16.25;;;-0.70;99.90;;;;;;4974729;28;20117;-57
2024/01/12 05:29:35;;;;;;;46.47;16.45;;;-0.60;99.90;;;;;;4973321;28;20027;-57
2024/01/12 05:32:02;;;;;;;41.42;14.77;;;-0.60;99.90;;;;;;4974441;28;20105;-54
2024/01/12 05:34:27;;;;;;;43.58;17.08;;;-0.50;99.90;;;;;;4973455;28;20050;-54
2024/01/12 05:36:53;;;;;;;47.67;18.67;;;-0.50;99.90;;;;;;4973276;28;20062;-56
2024/01/12 05:39:19;;;;;;;43.40;15.70;;;-0.50;99.90;;;;;;4974910;28;20244;-56
2024/01/12 05:41:44;;;;;;;44.90;16.13;;;-0.40;99.90;;;;;;4973366;28;20034;-57
2024/01/12 05:44:11;;;;;;;31.95;14.20;;;-0.40;99.90;;;;;;4973625;28;20042;-56
2024/01/12 05:46:36;;;;;;;31.85;13.35;;;-0.40;99.90;;;;;;4973441;28;20396;-56
2024/01/12 05:49:04;;;;;;;32.45;13.88;;;-0.30;99.90;;;;;;4973056;28;20101;-56
2024/01/12 05:51:30;;;;;;;41.65;15.65;;;-0.30;99.90;;;;;;4972133;28;20035;-56
2024/01/12 05:53:56;;;;;;;38.85;15.75;;;-0.20;99.90;;;;;;4974247;28;20058;-56
2024/01/12 05:56:22;;;;;;;33.85;14.38;;;-0.30;99.90;;;;;;4974229;28;20393;-57
2024/01/12 05:58:48;;;;;;;29.50;13.93;;;-0.20;99.90;;;;;;4974588;28;20045;-56
2024/01/12 06:01:13;;;;;;;35.22;12.75;;;-0.20;99.90;;;;;;4976561;28;20031;-57
2024/01/12 06:03:39;;;;;;;40.03;14.10;;;-0.20;99.90;;;;;;4972348;28;20058;-56
2024/01/12 06:06:05;;;;;;;28.80;11.90;;;-0.20;99.90;;;;;;4973929;28;20035;-56
2024/01/12 06:08:31;;;;;;;24.52;11.00;;;-0.20;99.90;;;;;;4974458;28;20019;-53
2024/01/12 06:10:57;;;;;;;37.53;13.38;;;-0.20;99.90;;;;;;4975173;28;20031;-56
2024/01/12 06:13:22;;;;;;;33.35;11.55;;;-0.20;99.90;;;;;;4974170;28;20041;-57
2024/01/12 06:15:48;;;;;;;30.05;11.30;;;-0.20;99.90;;;;;;4973281;28;20031;-54
2024/01/12 06:18:13;;;;;;;29.65;12.02;;;-0.10;99.90;;;;;;4972991;28;20037;-55
2024/01/12 06:20:39;;;;;;;27.23;12.27;;;-0.10;99.90;;;;;;4973636;28;20027;-56
2024/01/12 06:23:05;;;;;;;22.05;9.27;;;0.00;99.90;;;;;;4974101;28;20031;-57
2024/01/12 06:25:36;;;;;;;31.75;10.57;;;0.00;99.90;;;;;;4973758;28;20037;-57
2024/01/12 06:28:02;;;;;;;25.25;10.35;;;0.00;99.90;;;;;;4974473;28;20034;-57
2024/01/12 06:30:28;;;;;;;25.40;9.38;;;0.00;99.90;;;;;;4973634;28;20457;-56
2024/01/12 06:32:53;;;;;;;24.38;9.75;;;0.00;99.90;;;;;;4973962;28;20042;-60
2024/01/12 06:35:19;;;;;;;20.63;7.82;;;0.00;99.90;;;;;;4971672;28;20031;-56
2024/01/12 06:37:45;;;;;;;27.15;9.75;;;0.00;99.90;;;;;;4972884;28;20019;-57
2024/01/12 06:40:11;;;;;;;19.95;7.60;;;0.00;99.90;;;;;;4974643;28;20047;-58
2024/01/12 06:42:37;;;;;;;19.45;8.32;;;0.00;99.90;;;;;;4972922;28;20030;-56
2024/01/12 06:45:07;;;;;;;20.02;8.65;;;0.00;99.90;;;;;;4973156;28;20027;-56
2024/01/12 06:47:33;;;;;;;18.52;8.35;;;0.00;99.90;;;;;;4973703;28;20527;-56
2024/01/12 06:49:59;;;;;;;19.73;8.57;;;0.00;99.90;;;;;;4974020;28;20026;-57
2024/01/12 06:52:24;;;;;;;28.75;9.88;;;-0.10;99.90;;;;;;4968787;28;20023;-56
2024/01/12 06:54:50;;;;;;;21.35;9.13;;;-0.10;99.90;;;;;;4973223;28;20066;-57
2024/01/12 06:57:16;;;;;;;26.80;8.00;;;-0.10;99.90;;;;;;4972928;28;20035;-57
2024/01/12 06:59:41;;;;;;;20.23;8.55;;;-0.10;99.90;;;;;;4973027;28;20042;-55
2024/01/12 07:02:07;;;;;;;28.23;9.43;;;-0.10;99.90;;;;;;4973333;28;20035;-56
2024/01/12 07:04:33;;;;;;;26.50;9.18;;;-0.10;99.90;;;;;;4971939;28;20026;-57
2024/01/12 07:06:58;;;;;;;19.50;7.85;;;-0.10;99.90;;;;;;4969193;28;20030;-57
2024/01/12 07:09:24;;;;;;;24.63;9.30;;;-0.10;99.90;;;;;;4969814;28;20038;-57
2024/01/12 07:11:50;;;;;;;22.67;9.15;;;-0.10;99.90;;;;;;4971363;28;20071;-56
2024/01/12 07:14:16;;;;;;;21.10;9.32;;;-0.10;99.90;;;;;;4973229;28;20022;-56
2024/01/12 07:16:42;;;;;;;22.10;9.57;;;-0.10;99.90;;;;;;4972804;28;20110;-57
2024/01/12 07:19:08;;;;;;;25.85;8.80;;;-0.10;99.90;;;;;;4973406;28;20031;-56
2024/01/12 07:21:34;;;;;;;19.85;8.82;;;-0.10;99.90;;;;;;4970724;28;20023;-57
2024/01/12 07:24:00;;;;;;;23.58;8.73;;;-0.10;99.90;;;;;;4971937;28;20085;-54
2024/01/12 07:26:26;;;;;;;23.48;9.75;;;-0.10;99.90;;;;;;4971756;28;20023;-58
2024/01/12 07:28:52;;;;;;;15.90;6.75;;;-0.10;99.90;;;;;;4972940;28;20062;-57
2024/01/12 07:31:18;;;;;;;20.73;8.68;;;-0.10;99.90;;;;;;4971174;28;20433;-57
2024/01/12 07:33:44;;;;;;;19.67;7.93;;;-0.10;99.90;;;;;;4972724;28;20490;-57
2024/01/12 07:36:09;;;;;;;21.80;8.05;;;0.00;99.90;;;;;;4962277;28;20030;-56
2024/01/12 07:38:35;;;;;;;19.38;7.15;;;-0.10;99.90;;;;;;4973993;28;20148;-57
2024/01/12 07:41:01;;;;;;;21.98;8.75;;;-0.10;99.90;;;;;;4972739;28;20073;-56
2024/01/12 07:43:32;;;;;;;23.73;8.65;;;0.00;99.90;;;;;;4974225;28;20061;-57
2024/01/12 07:45:58;;;;;;;17.40;7.60;;;-0.10;99.90;;;;;;4975182;28;20029;-57
2024/01/12 07:48:23;;;;;;;21.20;8.75;;;0.00;99.90;;;;;;4971881;28;20027;-57
2024/01/12 07:50:49;;;;;;;21.90;9.07;;;0.00;99.90;;;;;;4971716;28;20062;-55
2024/01/12 07:53:15;;;;;;;21.40;8.77;;;0.00;99.90;;;;;;4971398;28;20759;-55
2024/01/12 07:55:41;;;;;;;23.83;8.20;;;-0.10;99.90;;;;;;4972291;28;20077;-57
2024/01/12 07:58:06;;;;;;;17.65;7.13;;;-0.10;99.90;;;;;;4972475;28;20033;-55
2024/01/12 08:00:32;;;;;;;19.15;6.95;;;0.00;99.90;;;;;;4971092;28;20548;-57
2024/01/12 08:02:58;;;;;;;19.48;8.45;;;-0.10;99.90;;;;;;4971347;28;20031;-57
2024/01/12 08:05:23;;;;;;;15.90;7.38;;;-0.10;99.90;;;;;;4970783;28;20030;-57
2024/01/12 08:07:49;;;;;;;21.67;7.63;;;-0.10;99.90;;;;;;4969753;28;20019;-56
2024/01/12 08:10:16;;;;;;;17.42;8.05;;;-0.10;99.90;;;;;;4971182;28;20023;-55
2024/01/12 08:12:41;;;;;;;20.90;8.50;;;-0.10;99.90;;;;;;4971682;28;20115;-58
2024/01/12 08:15:10;;;;;;;22.70;8.20;;;-0.10;99.90;;;;;;4971309;28;20426;-56
2024/01/12 08:17:39;;;;;;;21.52;9.35;;;0.00;99.90;;;;;;4970235;28;20473;-56
2024/01/12 08:20:05;;;;;;;21.30;9.55;;;0.00;99.90;;;;;;4970911;28;20101;-57
2024/01/12 08:22:32;;;;;;;20.17;8.75;;;-0.10;99.90;;;;;;4981728;28;20042;-56
2024/01/12 08:24:58;;;;;;;20.90;9.52;;;-0.10;99.90;;;;;;4971637;28;20490;-56
2024/01/12 08:27:23;;;;;;;20.60;8.48;;;0.00;99.90;;;;;;4971743;28;20064;-56
2024/01/12 08:29:49;;;;;;;16.75;8.50;;;0.10;99.90;;;;;;4971884;28;20015;-56
2024/01/12 08:32:14;;;;;;;20.35;8.15;;;0.10;99.90;;;;;;4970295;28;20086;-57
2024/01/12 08:34:40;;;;;;;21.75;9.48;;;0.10;99.90;;;;;;4970025;28;20050;-56
2024/01/12 08:37:06;;;;;;;24.20;9.32;;;0.10;99.90;;;;;;4971492;28;20027;-57
2024/01/12 08:39:32;;;;;;;23.48;9.77;;;0.10;99.90;;;;;;4971174;28;20065;-56
2024/01/12 08:41:58;;;;;;;20.08;9.00;;;0.10;99.90;;;;;;4972092;28;20489;-57
2024/01/12 08:44:24;;;;;;;17.88;9.15;;;0.10;99.90;;;;;;4970845;28;20033;-57
2024/01/12 08:46:52;;;;;;;19.15;7.95;;;0.20;99.90;;;;;;4969876;28;20034;-56
2024/01/12 08:49:19;;;;;;;25.35;9.13;;;0.20;99.90;;;;;;4971744;28;20464;-57
2024/01/12 08:51:46;;;;;;;20.38;8.27;;;0.10;99.90;;;;;;4971121;28;20027;-57
2024/01/12 08:54:12;;;;;;;19.00;9.25;;;0.10;99.90;;;;;;4969858;28;20034;-55
2024/01/12 08:56:37;;;;;;;17.25;8.40;;;0.10;99.90;;;;;;4970701;28;20027;-58
2024/01/12 08:59:03;;;;;;;21.88;9.98;;;0.10;99.90;;;;;;4970132;28;20142;-57
2024/01/12 09:01:29;;;;;;;23.60;9.25;;;0.10;99.90;;;;;;4971198;28;20031;-54
2024/01/12 09:03:54;;;;;;;20.08;8.30;;;0.20;99.90;;;;;;4971465;28;20035;-55
2024/01/12 09:06:23;;;;;;;22.75;8.23;;;0.30;99.90;;;;;;4973370;28;20069;-57
2024/01/12 09:08:52;;;;;;;23.55;10.02;;;0.30;99.90;;;;;;4971498;28;20070;-58
2024/01/12 09:11:17;;;;;;;20.95;10.52;;;0.30;99.90;;;;;;4969216;28;20081;-55
2024/01/12 09:13:43;;;;;;;31.30;10.02;;;0.40;99.90;;;;;;4968577;28;20026;-57
2024/01/12 09:16:09;;;;;;;21.65;10.13;;;0.40;99.90;;;;;;4970182;28;20114;-57
2024/01/12 09:18:35;;;;;;;17.65;8.27;;;0.40;99.90;;;;;;4970339;28;20159;-57
2024/01/12 09:21:00;;;;;;;26.45;11.75;;;0.40;99.90;;;;;;4967611;28;20039;-56
2024/01/12 09:23:26;;;;;;;22.55;10.70;;;0.30;99.90;;;;;;4970720;28;20038;-57
2024/01/12 09:25:54;;;;;;;21.98;9.65;;;0.30;99.90;;;;;;4971045;28;20061;-56
2024/01/12 09:28:23;;;;;;;25.13;9.52;;;0.30;99.90;;;;;;4971704;28;20535;-57
2024/01/12 09:30:48;;;;;;;22.35;8.93;;;0.30;99.90;;;;;;4969865;28;20085;-56
2024/01/12 09:33:14;;;;;;;18.92;8.07;;;0.20;99.90;;;;;;4971414;28;20035;-57
2024/01/12 09:35:40;;;;;;;21.02;8.45;;;0.20;99.90;;;;;;4973177;28;20027;-57
2024/01/12 09:38:06;;;;;;;21.80;9.45;;;0.20;99.90;;;;;;4971284;28;20035;-57
2024/01/12 09:40:33;;;;;;;21.75;8.15;;;0.20;99.90;;;;;;4971413;28;20481;-58
2024/01/12 09:43:00;;;;;;;25.17;9.20;;;0.10;99.90;;;;;;4968402;28;20140;-57
2024/01/12 09:45:26;;;;;;;19.92;8.18;;;0.20;99.90;;;;;;4969491;28;20028;-57
2024/01/12 09:48:00;;;;;;;20.75;9.27;;;0.20;99.90;;;;;;4970945;28;20097;-59
2024/01/12 09:50:25;;;;;;;26.77;11.43;;;0.30;99.90;;;;;;4973313;28;20113;-57
2024/01/12 09:52:51;;;;;;;24.38;9.98;;;0.20;99.90;;;;;;4974459;28;20050;-55
2024/01/12 09:55:17;;;;;;;22.27;9.05;;;0.30;99.90;;;;;;4972419;28;20418;-58
2024/01/12 09:57:46;;;;;;;20.73;9.48;;;0.30;99.90;;;;;;5014179;23;20487;-57
2024/01/12 10:00:17;;;;;;;21.95;9.27;;;0.30;99.90;;;;;;5027032;28;20029;-59
2024/01/12 10:02:42;;;;;;;24.52;9.45;;;0.30;99.90;;;;;;5030628;28;20009;-59
2024/01/12 10:05:08;;;;;;;20.77;9.30;;;0.30;99.90;;;;;;5031726;28;20033;-56
2024/01/12 10:07:34;;;;;;;22.58;8.55;;;0.30;99.90;;;;;;5030850;28;20029;-56
2024/01/12 10:09:59;;;;;;;20.70;9.48;;;0.30;99.90;;;;;;5030037;28;20028;-56
2024/01/12 10:12:25;;;;;;;23.65;9.55;;;0.40;99.90;;;;;;5030474;28;20024;-57
2024/01/12 10:15:05;;;;;;;20.92;9.48;;;0.50;99.90;;;;;;5032961;28;20079;-58
2024/01/12 10:17:31;;;;;;;17.63;7.90;;;0.50;99.90;;;;;;5031714;28;20494;-57
2024/01/12 10:19:57;;;;;;;20.95;9.07;;;0.50;99.90;;;;;;5030072;28;20387;-57
2024/01/12 10:22:23;;;;;;;17.55;7.95;;;0.50;99.90;;;;;;5027848;28;20030;-55
2024/01/12 10:25:02;;;;;;;26.60;9.55;;;0.60;99.90;;;;;;5031677;28;20030;-56
2024/01/12 10:27:27;;;;;;;25.27;8.98;;;0.60;99.90;;;;;;5032679;28;20479;-58
2024/01/12 10:29:55;;;;;;;23.40;9.98;;;0.50;99.90;;;;;;5032242;28;20021;-57
2024/01/12 10:32:21;;;;;;;23.05;9.68;;;0.50;99.90;;;;;;5032322;28;20036;-58
2024/01/12 10:34:47;;;;;;;25.38;9.73;;;0.50;99.90;;;;;;5029698;28;20021;-54
2024/01/12 10:37:15;;;;;;;25.67;10.15;;;0.60;99.90;;;;;;5024759;28;20036;-56
2024/01/12 10:39:44;;;;;;;26.27;10.40;;;0.60;99.90;;;;;;5029379;28;20049;-58
2024/01/12 10:42:11;;;;;;;21.23;9.93;;;0.50;99.90;;;;;;5032640;28;20669;-54
2024/01/12 10:44:40;;;;;;;22.85;10.60;;;0.50;99.90;;;;;;5032240;28;20025;-56
2024/01/12 10:47:10;;;;;;;21.92;10.45;;;0.40;99.90;;;;;;5028779;28;20049;-57
2024/01/12 10:50:08;;;;;;;25.15;12.15;;;0.40;99.90;;;;;;5025055;28;20586;-58
2024/01/12 10:52:46;;;;;;;29.38;10.93;;;0.40;99.90;;;;;;5015635;28;20034;-56
2024/01/12 10:55:28;;;;;;;30.85;11.40;;;0.40;99.90;;;;;;5028620;28;20028;-56
2024/01/12 10:57:54;;;;;;;23.77;10.93;;;0.50;99.90;;;;;;5020845;28;20121;-55
2024/01/12 11:00:20;;;;;;;26.98;12.30;;;0.50;99.90;;;;;;5030705;28;20025;-55
2024/01/12 11:02:48;;;;;;;21.58;9.70;;;0.60;99.90;;;;;;5029110;28;20029;-55
2024/01/12 11:05:14;;;;;;;29.92;11.40;;;0.70;99.90;;;;;;5031774;28;20422;-55
2024/01/12 11:07:42;;;;;;;35.85;11.10;;;0.60;99.90;;;;;;5028369;28;20104;-55
2024/01/12 11:10:08;;;;;;;28.33;11.55;;;0.50;99.90;;;;;;5030495;28;20472;-55
2024/01/12 11:12:37;;;;;;;27.33;12.20;;;0.50;99.90;;;;;;5030033;28;20026;-58
2024/01/12 11:15:04;;;;;;;29.13;11.70;;;0.50;99.90;;;;;;5030119;28;20519;-58
2024/01/12 11:17:33;;;;;;;27.02;11.75;;;0.50;99.90;;;;;;5028257;28;20487;-57
2024/01/12 11:20:10;;;;;;;36.58;11.55;;;0.50;99.90;;;;;;5027985;28;20034;-56
2024/01/12 11:22:40;;;;;;;24.33;11.65;;;0.60;99.90;;;;;;5026631;28;20017;-58
2024/01/12 11:25:08;;;;;;;31.20;14.05;;;0.60;99.90;;;;;;5027835;28;20033;-52
2024/01/12 11:27:40;;;;;;;27.67;12.00;;;0.50;99.90;;;;;;5030155;28;20017;-51
2024/01/12 11:30:09;;;;;;;28.08;11.80;;;0.60;99.90;;;;;;5031433;28;20044;-50
2024/01/12 11:32:35;;;;;;;33.70;11.40;;;0.60;99.90;;;;;;5026753;28;20053;-50
2024/01/12 11:35:14;;;;;;;36.47;11.98;;;0.60;99.90;;;;;;5029150;28;20026;-52
2024/01/12 11:37:42;;;;;;;27.88;12.82;;;0.60;99.90;;;;;;5026332;28;20113;-54
2024/01/12 11:40:09;;;;;;;35.03;13.48;;;0.60;99.90;;;;;;5027753;28;20116;-57
2024/01/12 11:42:42;;;;;;;30.08;12.85;;;0.60;99.90;;;;;;5029930;28;20037;-56
2024/01/12 11:45:10;;;;;;;38.72;13.57;;;0.60;99.90;;;;;;5029275;28;20402;-50
2024/01/12 11:47:38;;;;;;;41.58;12.90;;;0.60;99.90;;;;;;5030749;28;20057;-55
2024/01/12 11:50:05;;;;;;;31.55;13.65;;;0.60;99.90;;;;;;5031334;28;20052;-51
2024/01/12 11:52:31;;;;;;;35.25;12.93;;;0.60;99.90;;;;;;5030412;28;20029;-58
2024/01/12 11:54:56;;;;;;;34.00;13.40;;;0.70;99.90;;;;;;5029611;28;20022;-51
2024/01/12 11:57:24;;;;;;;40.20;14.35;;;0.70;99.90;;;;;;5029604;28;20061;-50
2024/01/12 11:59:49;;;;;;;37.15;13.25;;;0.70;99.90;;;;;;5020191;28;20045;-52
2024/01/12 12:02:16;;;;;;;42.53;13.85;;;0.70;99.90;;;;;;5026127;28;20083;-55
2024/01/12 12:04:42;;;;;;;35.60;13.07;;;0.70;99.90;;;;;;5011652;28;20068;-54
2024/01/12 12:07:08;;;;;;;37.33;14.00;;;0.60;99.90;;;;;;5022838;28;20034;-50
2024/01/12 12:09:33;;;;;;;47.63;16.83;;;0.60;99.90;;;;;;5026968;28;20018;-52
2024/01/12 12:11:59;;;;;;;57.75;17.58;;;0.50;99.90;;;;;;5029806;28;20026;-51
2024/01/12 12:14:24;;;;;;;42.03;14.93;;;0.60;99.90;;;;;;5028607;28;20140;-53
2024/01/12 12:16:50;;;;;;;43.80;16.73;;;0.60;99.90;;;;;;5029632;28;20021;-53
2024/01/12 12:19:16;;;;;;;39.05;15.88;;;0.70;99.90;;;;;;5030360;28;20040;-51
2024/01/12 12:21:41;;;;;;;36.97;15.52;;;0.60;99.90;;;;;;5030764;28;20037;-55
2024/01/12 12:24:07;;;;;;;37.97;15.27;;;0.60;99.90;;;;;;5029699;28;20103;-57
2024/01/12 12:26:32;;;;;;;43.00;15.95;;;0.60;99.90;;;;;;5028772;28;20021;-52
2024/01/12 12:28:58;;;;;;;41.53;16.55;;;0.60;99.90;;;;;;5025241;28;20038;-54